SKUC/AUC METAR and TAF weather

Enter ICAO airport designator
Station Type Date Time Source
SKUC METAR 2022/11/30 16:00 UTC NOAA

SKUC 301600Z VRB05KT 9999 SCT025 29/22 Q1010 RMK A2983


Station Type Date Time Source
SKUC Decoded METAR 2022/11/30 16:00 UTC NOAA

Arauca / Santiago Perez, Colombia (SKUC) 07-04N 070-44W 128M
Nov 30, 2022 - 11:00 AM EST / 2022.11.30 1600 UTC
Wind: Variable at 6 MPH (5 KT):0
Visibility: greater than 7 mile(s):0
Sky conditions: partly cloudy
Temperature: 84 F (29 C)
Dew Point: 71 F (22 C)
Relative Humidity: 65%
Pressure (altimeter): 29.83 in. Hg (1010 hPa)
ob: SKUC 301600Z VRB05KT 9999 SCT025 29/22 Q1010 RMK A2983
cycle: 16

Station Type Date Time Source
SKUC TAF UTC NOAA

Error!

Example: see airport list